sensor_id;sensor_type;location;lat;lon;timestamp;temperature;humidity
21445;DHT22;10883;51.946;20.140;2023-02-20T00:00:20;2.30;99.90
21445;DHT22;10883;51.946;20.140;2023-02-20T00:02:47;2.30;99.90
21445;DHT22;10883;51.946;20.140;2023-02-20T00:05:14;2.30;99.90
21445;DHT22;10883;51.946;20.140;2023-02-20T00:07:40;2.40;99.90
21445;DHT22;10883;51.946;20.140;2023-02-20T00:10:06;2.40;99.90
21445;DHT22;10883;51.946;20.140;2023-02-20T00:12:32;2.40;99.90
21445;DHT22;10883;51.946;20.140;2023-02-20T00:14:58;2.50;99.90
21445;DHT22;10883;51.946;20.140;2023-02-20T00:17:23;2.40;99.90
21445;DHT22;10883;51.946;20.140;2023-02-20T00:19:49;2.40;99.90
21445;DHT22;10883;51.946;20.140;2023-02-20T00:22:15;2.40;99.90
21445;DHT22;10883;51.946;20.140;2023-02-20T00:24:41;2.40;99.90
21445;DHT22;10883;51.946;20.140;2023-02-20T00:27:07;2.40;99.90
21445;DHT22;10883;51.946;20.140;2023-02-20T00:29:33;2.50;99.90
21445;DHT22;10883;51.946;20.140;2023-02-20T00:31:59;2.50;99.90
21445;DHT22;10883;51.946;20.140;2023-02-20T00:34:27;2.50;99.90
21445;DHT22;10883;51.946;20.140;2023-02-20T00:36:53;2.60;99.90
21445;DHT22;10883;51.946;20.140;2023-02-20T00:39:19;2.60;99.90
21445;DHT22;10883;51.946;20.140;2023-02-20T00:41:45;2.60;99.90
21445;DHT22;10883;51.946;20.140;2023-02-20T00:44:11;2.60;99.90
21445;DHT22;10883;51.946;20.140;2023-02-20T00:46:36;2.60;99.90
21445;DHT22;10883;51.946;20.140;2023-02-20T00:49:02;2.60;99.90
21445;DHT22;10883;51.946;20.140;2023-02-20T00:51:29;2.60;99.90
21445;DHT22;10883;51.946;20.140;2023-02-20T00:53:56;2.70;99.90
21445;DHT22;10883;51.946;20.140;2023-02-20T00:56:21;2.70;99.90
21445;DHT22;10883;51.946;20.140;2023-02-20T00:58:47;2.70;99.90
21445;DHT22;10883;51.946;20.140;2023-02-20T01:01:13;2.70;99.90
21445;DHT22;10883;51.946;20.140;2023-02-20T01:03:41;2.70;99.90
21445;DHT22;10883;51.946;20.140;2023-02-20T01:06:07;2.70;99.90
21445;DHT22;10883;51.946;20.140;2023-02-20T01:08:33;2.70;99.90
21445;DHT22;10883;51.946;20.140;2023-02-20T01:10:58;2.60;99.90
21445;DHT22;10883;51.946;20.140;2023-02-20T01:13:24;2.60;99.90
21445;DHT22;10883;51.946;20.140;2023-02-20T01:15:50;2.60;99.90
21445;DHT22;10883;51.946;20.140;2023-02-20T01:18:16;2.60;99.90
21445;DHT22;10883;51.946;20.140;2023-02-20T01:20:42;2.60;99.90
21445;DHT22;10883;51.946;20.140;2023-02-20T01:23:08;2.60;99.90
21445;DHT22;10883;51.946;20.140;2023-02-20T01:25:33;2.60;99.90
21445;DHT22;10883;51.946;20.140;2023-02-20T01:27:59;2.60;99.90
21445;DHT22;10883;51.946;20.140;2023-02-20T01:30:25;2.60;99.90
21445;DHT22;10883;51.946;20.140;2023-02-20T01:32:51;2.60;99.90
21445;DHT22;10883;51.946;20.140;2023-02-20T01:35:17;2.60;99.90
21445;DHT22;10883;51.946;20.140;2023-02-20T01:37:42;2.60;99.90
21445;DHT22;10883;51.946;20.140;2023-02-20T01:40:17;2.70;99.90
21445;DHT22;10883;51.946;20.140;2023-02-20T01:42:43;2.70;99.90
21445;DHT22;10883;51.946;20.140;2023-02-20T01:45:26;2.70;99.90
21445;DHT22;10883;51.946;20.140;2023-02-20T01:47:54;2.70;99.90
21445;DHT22;10883;51.946;20.140;2023-02-20T01:53:00;2.70;99.90
21445;DHT22;10883;51.946;20.140;2023-02-20T01:55:32;2.70;99.90
21445;DHT22;10883;51.946;20.140;2023-02-20T01:58:19;2.70;99.90
21445;DHT22;10883;51.946;20.140;2023-02-20T02:00:45;2.70;99.90
21445;DHT22;10883;51.946;20.140;2023-02-20T02:03:14;2.70;99.90
21445;DHT22;10883;51.946;20.140;2023-02-20T02:05:45;2.70;99.90
21445;DHT22;10883;51.946;20.140;2023-02-20T02:08:13;2.70;99.90
21445;DHT22;10883;51.946;20.140;2023-02-20T02:10:49;2.70;99.90
21445;DHT22;10883;51.946;20.140;2023-02-20T02:13:17;2.80;99.90
21445;DHT22;10883;51.946;20.140;2023-02-20T02:15:43;2.80;99.90
21445;DHT22;10883;51.946;20.140;2023-02-20T02:21:16;2.80;99.90
21445;DHT22;10883;51.946;20.140;2023-02-20T02:29:41;2.80;99.90
21445;DHT22;10883;51.946;20.140;2023-02-20T02:42:31;2.80;99.90
21445;DHT22;10883;51.946;20.140;2023-02-20T02:47:54;2.80;99.90
21445;DHT22;10883;51.946;20.140;2023-02-20T02:50:31;2.80;99.90
21445;DHT22;10883;51.946;20.140;2023-02-20T02:52:59;2.80;99.90
21445;DHT22;10883;51.946;20.140;2023-02-20T02:55:28;2.80;99.90
21445;DHT22;10883;51.946;20.140;2023-02-20T02:57:54;2.80;99.90
21445;DHT22;10883;51.946;20.140;2023-02-20T03:06:10;2.90;99.90
21445;DHT22;10883;51.946;20.140;2023-02-20T03:08:41;2.90;99.90
21445;DHT22;10883;51.946;20.140;2023-02-20T03:11:15;2.90;99.90
21445;DHT22;10883;51.946;20.140;2023-02-20T03:16:43;2.90;99.90
21445;DHT22;10883;51.946;20.140;2023-02-20T03:19:12;2.90;99.90
21445;DHT22;10883;51.946;20.140;2023-02-20T03:21:43;2.80;99.90
21445;DHT22;10883;51.946;20.140;2023-02-20T03:24:12;2.80;99.90
21445;DHT22;10883;51.946;20.140;2023-02-20T03:26:40;2.70;99.90
21445;DHT22;10883;51.946;20.140;2023-02-20T03:29:15;2.70;99.90
21445;DHT22;10883;51.946;20.140;2023-02-20T03:31:51;2.70;99.90
21445;DHT22;10883;51.946;20.140;2023-02-20T03:34:38;2.80;99.90
21445;DHT22;10883;51.946;20.140;2023-02-20T03:37:25;2.80;99.90
21445;DHT22;10883;51.946;20.140;2023-02-20T03:40:12;2.80;99.90
21445;DHT22;10883;51.946;20.140;2023-02-20T03:43:01;2.80;99.90
21445;DHT22;10883;51.946;20.140;2023-02-20T03:45:47;2.80;99.90
21445;DHT22;10883;51.946;20.140;2023-02-20T03:48:23;2.80;99.90
21445;DHT22;10883;51.946;20.140;2023-02-20T03:50:50;2.70;99.90
21445;DHT22;10883;51.946;20.140;2023-02-20T03:53:16;2.70;99.90
21445;DHT22;10883;51.946;20.140;2023-02-20T03:55:43;2.70;99.90
21445;DHT22;10883;51.946;20.140;2023-02-20T03:58:11;2.70;99.90
21445;DHT22;10883;51.946;20.140;2023-02-20T04:00:42;2.60;99.90
21445;DHT22;10883;51.946;20.140;2023-02-20T04:03:16;2.60;99.90
21445;DHT22;10883;51.946;20.140;2023-02-20T04:05:45;2.60;99.90
21445;DHT22;10883;51.946;20.140;2023-02-20T04:08:27;2.60;99.90
21445;DHT22;10883;51.946;20.140;2023-02-20T04:11:46;2.60;99.90
21445;DHT22;10883;51.946;20.140;2023-02-20T04:14:15;2.50;99.90
21445;DHT22;10883;51.946;20.140;2023-02-20T04:16:47;2.50;99.90
21445;DHT22;10883;51.946;20.140;2023-02-20T04:19:14;2.40;99.90
21445;DHT22;10883;51.946;20.140;2023-02-20T04:21:53;2.40;99.90
21445;DHT22;10883;51.946;20.140;2023-02-20T04:24:28;2.30;99.90
21445;DHT22;10883;51.946;20.140;2023-02-20T04:26:54;2.30;99.90
21445;DHT22;10883;51.946;20.140;2023-02-20T04:29:20;2.30;99.90
21445;DHT22;10883;51.946;20.140;2023-02-20T04:31:45;2.30;99.90
21445;DHT22;10883;51.946;20.140;2023-02-20T04:34:11;2.30;99.90
21445;DHT22;10883;51.946;20.140;2023-02-20T04:36:37;2.30;99.90
21445;DHT22;10883;51.946;20.140;2023-02-20T04:39:04;2.30;99.90
21445;DHT22;10883;51.946;20.140;2023-02-20T04:41:29;2.30;99.90
21445;DHT22;10883;51.946;20.140;2023-02-20T04:43:55;2.30;99.90
21445;DHT22;10883;51.946;20.140;2023-02-20T04:46:41;2.30;99.90
21445;DHT22;10883;51.946;20.140;2023-02-20T04:49:07;2.30;99.90
21445;DHT22;10883;51.946;20.140;2023-02-20T04:51:32;2.30;99.90
21445;DHT22;10883;51.946;20.140;2023-02-20T04:53:58;2.30;99.90
21445;DHT22;10883;51.946;20.140;2023-02-20T04:56:24;2.40;99.90
21445;DHT22;10883;51.946;20.140;2023-02-20T04:58:49;2.40;99.90
21445;DHT22;10883;51.946;20.140;2023-02-20T05:01:16;2.30;99.90
21445;DHT22;10883;51.946;20.140;2023-02-20T05:03:42;2.30;99.90
21445;DHT22;10883;51.946;20.140;2023-02-20T05:06:07;2.30;99.90
21445;DHT22;10883;51.946;20.140;2023-02-20T05:08:33;2.30;99.90
21445;DHT22;10883;51.946;20.140;2023-02-20T05:11:00;2.40;99.90
21445;DHT22;10883;51.946;20.140;2023-02-20T05:13:26;2.30;99.90
21445;DHT22;10883;51.946;20.140;2023-02-20T05:15:52;2.40;99.90
21445;DHT22;10883;51.946;20.140;2023-02-20T05:18:24;2.40;99.90
21445;DHT22;10883;51.946;20.140;2023-02-20T05:20:50;2.40;99.90
21445;DHT22;10883;51.946;20.140;2023-02-20T05:23:35;2.40;99.90
21445;DHT22;10883;51.946;20.140;2023-02-20T05:26:00;2.40;99.90
21445;DHT22;10883;51.946;20.140;2023-02-20T05:28:26;2.40;99.90
21445;DHT22;10883;51.946;20.140;2023-02-20T05:30:52;2.40;99.90
21445;DHT22;10883;51.946;20.140;2023-02-20T05:33:18;2.40;99.90
21445;DHT22;10883;51.946;20.140;2023-02-20T05:35:43;2.40;99.90
21445;DHT22;10883;51.946;20.140;2023-02-20T05:38:14;2.40;99.90
21445;DHT22;10883;51.946;20.140;2023-02-20T05:40:40;2.40;99.90
21445;DHT22;10883;51.946;20.140;2023-02-20T05:43:06;2.40;99.90
21445;DHT22;10883;51.946;20.140;2023-02-20T05:45:32;2.40;99.90
21445;DHT22;10883;51.946;20.140;2023-02-20T05:47:57;2.50;99.90
21445;DHT22;10883;51.946;20.140;2023-02-20T05:50:23;2.50;99.90
21445;DHT22;10883;51.946;20.140;2023-02-20T05:52:49;2.50;99.90
21445;DHT22;10883;51.946;20.140;2023-02-20T05:55:15;2.60;99.90
21445;DHT22;10883;51.946;20.140;2023-02-20T05:57:41;2.70;99.90
21445;DHT22;10883;51.946;20.140;2023-02-20T06:00:07;2.70;99.90
21445;DHT22;10883;51.946;20.140;2023-02-20T06:02:33;2.70;99.90
21445;DHT22;10883;51.946;20.140;2023-02-20T06:04:59;2.80;99.90
21445;DHT22;10883;51.946;20.140;2023-02-20T06:07:25;2.80;99.90
21445;DHT22;10883;51.946;20.140;2023-02-20T06:09:51;2.90;99.90
21445;DHT22;10883;51.946;20.140;2023-02-20T06:12:16;2.90;99.90
21445;DHT22;10883;51.946;20.140;2023-02-20T06:14:42;2.90;99.90
21445;DHT22;10883;51.946;20.140;2023-02-20T06:17:08;3.00;99.90
21445;DHT22;10883;51.946;20.140;2023-02-20T06:19:33;3.00;99.90
21445;DHT22;10883;51.946;20.140;2023-02-20T06:21:59;3.10;99.90
21445;DHT22;10883;51.946;20.140;2023-02-20T06:24:26;3.10;99.90
21445;DHT22;10883;51.946;20.140;2023-02-20T06:26:52;3.20;99.90
21445;DHT22;10883;51.946;20.140;2023-02-20T06:29:18;3.20;99.90
21445;DHT22;10883;51.946;20.140;2023-02-20T06:31:44;3.30;99.90
21445;DHT22;10883;51.946;20.140;2023-02-20T06:34:10;3.40;99.90
21445;DHT22;10883;51.946;20.140;2023-02-20T06:36:38;3.40;99.90
21445;DHT22;10883;51.946;20.140;2023-02-20T06:39:07;3.50;99.90
21445;DHT22;10883;51.946;20.140;2023-02-20T06:41:33;3.50;99.90
21445;DHT22;10883;51.946;20.140;2023-02-20T06:43:59;3.60;99.90
21445;DHT22;10883;51.946;20.140;2023-02-20T06:46:25;3.60;99.90
21445;DHT22;10883;51.946;20.140;2023-02-20T06:48:54;3.70;99.90
21445;DHT22;10883;51.946;20.140;2023-02-20T06:51:22;3.70;99.90
21445;DHT22;10883;51.946;20.140;2023-02-20T06:53:48;3.70;99.90
21445;DHT22;10883;51.946;20.140;2023-02-20T06:56:20;3.70;99.90
21445;DHT22;10883;51.946;20.140;2023-02-20T06:58:49;3.80;99.90
21445;DHT22;10883;51.946;20.140;2023-02-20T07:01:16;3.90;99.90
21445;DHT22;10883;51.946;20.140;2023-02-20T07:03:42;3.90;99.90
21445;DHT22;10883;51.946;20.140;2023-02-20T07:06:09;4.00;99.90
21445;DHT22;10883;51.946;20.140;2023-02-20T07:08:36;4.00;99.90
21445;DHT22;10883;51.946;20.140;2023-02-20T07:11:02;4.10;99.90
21445;DHT22;10883;51.946;20.140;2023-02-20T07:13:28;4.10;99.90
21445;DHT22;10883;51.946;20.140;2023-02-20T07:15:54;4.00;99.90
21445;DHT22;10883;51.946;20.140;2023-02-20T07:18:19;4.00;99.90
21445;DHT22;10883;51.946;20.140;2023-02-20T07:20:50;4.10;99.90
21445;DHT22;10883;51.946;20.140;2023-02-20T07:23:16;4.20;99.90
21445;DHT22;10883;51.946;20.140;2023-02-20T07:25:42;4.30;99.90
21445;DHT22;10883;51.946;20.140;2023-02-20T07:28:08;4.50;99.90
21445;DHT22;10883;51.946;20.140;2023-02-20T07:30:34;4.50;99.90
21445;DHT22;10883;51.946;20.140;2023-02-20T07:33:00;4.80;99.90
21445;DHT22;10883;51.946;20.140;2023-02-20T07:35:26;5.20;99.90
21445;DHT22;10883;51.946;20.140;2023-02-20T07:37:52;5.40;99.90
21445;DHT22;10883;51.946;20.140;2023-02-20T07:40:17;5.60;99.90
21445;DHT22;10883;51.946;20.140;2023-02-20T07:42:43;5.80;99.90
21445;DHT22;10883;51.946;20.140;2023-02-20T07:45:10;6.10;99.90
21445;DHT22;10883;51.946;20.140;2023-02-20T07:47:36;6.10;99.90
21445;DHT22;10883;51.946;20.140;2023-02-20T07:50:02;6.10;99.90
21445;DHT22;10883;51.946;20.140;2023-02-20T07:52:28;6.00;99.90
21445;DHT22;10883;51.946;20.140;2023-02-20T07:54:54;5.70;99.90
21445;DHT22;10883;51.946;20.140;2023-02-20T07:57:20;5.50;99.90
21445;DHT22;10883;51.946;20.140;2023-02-20T07:59:46;5.30;99.90
21445;DHT22;10883;51.946;20.140;2023-02-20T08:02:11;5.20;99.90
21445;DHT22;10883;51.946;20.140;2023-02-20T08:04:37;5.20;99.90
21445;DHT22;10883;51.946;20.140;2023-02-20T08:07:03;5.30;99.90
21445;DHT22;10883;51.946;20.140;2023-02-20T08:09:31;5.10;99.90
21445;DHT22;10883;51.946;20.140;2023-02-20T08:11:57;5.10;99.90
21445;DHT22;10883;51.946;20.140;2023-02-20T08:14:23;5.00;99.90
21445;DHT22;10883;51.946;20.140;2023-02-20T08:16:49;5.00;99.90
21445;DHT22;10883;51.946;20.140;2023-02-20T08:19:15;4.90;99.90
21445;DHT22;10883;51.946;20.140;2023-02-20T08:21:40;4.90;99.90
21445;DHT22;10883;51.946;20.140;2023-02-20T08:24:07;5.00;99.90
21445;DHT22;10883;51.946;20.140;2023-02-20T08:26:32;5.00;99.90
21445;DHT22;10883;51.946;20.140;2023-02-20T08:29:01;5.00;99.90
21445;DHT22;10883;51.946;20.140;2023-02-20T08:31:26;4.90;99.90
21445;DHT22;10883;51.946;20.140;2023-02-20T08:33:52;4.80;99.90
21445;DHT22;10883;51.946;20.140;2023-02-20T08:36:18;4.80;99.90
21445;DHT22;10883;51.946;20.140;2023-02-20T08:38:44;4.80;99.90
21445;DHT22;10883;51.946;20.140;2023-02-20T08:41:11;4.70;99.90
21445;DHT22;10883;51.946;20.140;2023-02-20T08:43:38;4.80;99.90
21445;DHT22;10883;51.946;20.140;2023-02-20T08:46:05;4.70;99.90
21445;DHT22;10883;51.946;20.140;2023-02-20T08:48:32;4.70;99.90
21445;DHT22;10883;51.946;20.140;2023-02-20T08:50:58;4.60;99.90
21445;DHT22;10883;51.946;20.140;2023-02-20T08:53:24;4.50;99.90
21445;DHT22;10883;51.946;20.140;2023-02-20T08:55:50;4.40;99.90
21445;DHT22;10883;51.946;20.140;2023-02-20T08:58:23;4.30;99.90
21445;DHT22;10883;51.946;20.140;2023-02-20T09:00:49;4.30;99.90
21445;DHT22;10883;51.946;20.140;2023-02-20T09:03:15;4.30;99.90
21445;DHT22;10883;51.946;20.140;2023-02-20T09:05:42;4.30;99.90
21445;DHT22;10883;51.946;20.140;2023-02-20T09:08:09;4.20;99.90
21445;DHT22;10883;51.946;20.140;2023-02-20T09:10:35;4.20;99.90
21445;DHT22;10883;51.946;20.140;2023-02-20T09:13:01;4.10;99.90
21445;DHT22;10883;51.946;20.140;2023-02-20T09:15:27;4.10;99.90
21445;DHT22;10883;51.946;20.140;2023-02-20T09:17:54;4.10;99.90
21445;DHT22;10883;51.946;20.140;2023-02-20T09:20:21;4.10;99.90
21445;DHT22;10883;51.946;20.140;2023-02-20T09:22:50;4.10;99.90
21445;DHT22;10883;51.946;20.140;2023-02-20T09:25:17;4.10;99.90
21445;DHT22;10883;51.946;20.140;2023-02-20T09:27:43;4.10;99.90
21445;DHT22;10883;51.946;20.140;2023-02-20T09:30:10;4.00;99.90
21445;DHT22;10883;51.946;20.140;2023-02-20T09:32:41;3.90;99.90
21445;DHT22;10883;51.946;20.140;2023-02-20T09:35:08;3.80;99.90
21445;DHT22;10883;51.946;20.140;2023-02-20T09:37:34;3.80;99.90
21445;DHT22;10883;51.946;20.140;2023-02-20T09:40:00;3.80;99.90
21445;DHT22;10883;51.946;20.140;2023-02-20T09:47:43;3.60;99.90
21445;DHT22;10883;51.946;20.140;2023-02-20T09:50:21;3.50;99.90
21445;DHT22;10883;51.946;20.140;2023-02-20T09:52:59;3.50;99.90
21445;DHT22;10883;51.946;20.140;2023-02-20T09:55:35;3.40;99.90
21445;DHT22;10883;51.946;20.140;2023-02-20T09:58:03;3.30;99.90
21445;DHT22;10883;51.946;20.140;2023-02-20T10:00:33;3.20;99.90
21445;DHT22;10883;51.946;20.140;2023-02-20T10:05:53;3.20;99.90
21445;DHT22;10883;51.946;20.140;2023-02-20T10:08:21;3.20;99.90
21445;DHT22;10883;51.946;20.140;2023-02-20T10:10:49;3.20;99.90
21445;DHT22;10883;51.946;20.140;2023-02-20T10:13:30;3.20;99.90
21445;DHT22;10883;51.946;20.140;2023-02-20T10:19:05;3.20;99.90
21445;DHT22;10883;51.946;20.140;2023-02-20T10:26:47;3.10;99.90
21445;DHT22;10883;51.946;20.140;2023-02-20T10:29:19;3.20;99.90
21445;DHT22;10883;51.946;20.140;2023-02-20T10:31:51;3.20;99.90
21445;DHT22;10883;51.946;20.140;2023-02-20T10:34:53;3.20;99.90
21445;DHT22;10883;51.946;20.140;2023-02-20T10:37:25;3.30;99.90
21445;DHT22;10883;51.946;20.140;2023-02-20T10:39:59;3.20;99.90
21445;DHT22;10883;51.946;20.140;2023-02-20T10:42:38;3.20;99.90
21445;DHT22;10883;51.946;20.140;2023-02-20T10:45:38;3.30;99.90
21445;DHT22;10883;51.946;20.140;2023-02-20T10:48:09;3.30;99.90
21445;DHT22;10883;51.946;20.140;2023-02-20T10:50:49;3.40;99.90
21445;DHT22;10883;51.946;20.140;2023-02-20T10:53:28;3.50;99.90
21445;DHT22;10883;51.946;20.140;2023-02-20T10:56:38;3.50;99.90
21445;DHT22;10883;51.946;20.140;2023-02-20T10:59:29;3.50;99.90
21445;DHT22;10883;51.946;20.140;2023-02-20T11:01:57;3.40;99.90
21445;DHT22;10883;51.946;20.140;2023-02-20T11:04:29;3.50;99.90
21445;DHT22;10883;51.946;20.140;2023-02-20T11:07:04;3.50;99.90
21445;DHT22;10883;51.946;20.140;2023-02-20T11:09:32;3.50;99.90
21445;DHT22;10883;51.946;20.140;2023-02-20T11:11:59;3.50;99.90
21445;DHT22;10883;51.946;20.140;2023-02-20T11:14:45;3.50;99.90
21445;DHT22;10883;51.946;20.140;2023-02-20T11:17:24;3.50;99.90
21445;DHT22;10883;51.946;20.140;2023-02-20T11:19:58;3.50;99.90
21445;DHT22;10883;51.946;20.140;2023-02-20T11:22:48;3.60;99.90
21445;DHT22;10883;51.946;20.140;2023-02-20T11:25:29;3.60;99.90
21445;DHT22;10883;51.946;20.140;2023-02-20T11:28:10;3.50;99.90
21445;DHT22;10883;51.946;20.140;2023-02-20T11:30:43;3.50;99.90
21445;DHT22;10883;51.946;20.140;2023-02-20T11:33:20;3.50;99.90
21445;DHT22;10883;51.946;20.140;2023-02-20T11:35:49;3.60;99.90
21445;DHT22;10883;51.946;20.140;2023-02-20T11:43:26;3.80;99.90
21445;DHT22;10883;51.946;20.140;2023-02-20T11:49:22;3.90;99.90
21445;DHT22;10883;51.946;20.140;2023-02-20T11:51:48;4.00;99.90
21445;DHT22;10883;51.946;20.140;2023-02-20T11:54:25;4.10;99.90
21445;DHT22;10883;51.946;20.140;2023-02-20T11:57:26;4.10;99.90
21445;DHT22;10883;51.946;20.140;2023-02-20T12:02:54;4.40;99.90
21445;DHT22;10883;51.946;20.140;2023-02-20T12:10:51;4.50;99.90
21445;DHT22;10883;51.946;20.140;2023-02-20T12:13:18;4.60;99.90
21445;DHT22;10883;51.946;20.140;2023-02-20T12:15:50;4.70;99.90
21445;DHT22;10883;51.946;20.140;2023-02-20T12:21:09;4.90;99.90
21445;DHT22;10883;51.946;20.140;2023-02-20T12:26:54;5.00;99.90
21445;DHT22;10883;51.946;20.140;2023-02-20T12:29:45;5.10;99.90
21445;DHT22;10883;51.946;20.140;2023-02-20T12:46:36;5.50;99.90
21445;DHT22;10883;51.946;20.140;2023-02-20T12:51:57;5.80;99.90
21445;DHT22;10883;51.946;20.140;2023-02-20T12:57:25;6.20;99.90
21445;DHT22;10883;51.946;20.140;2023-02-20T13:00:00;6.30;99.90
21445;DHT22;10883;51.946;20.140;2023-02-20T13:02:34;6.40;99.90
21445;DHT22;10883;51.946;20.140;2023-02-20T13:05:03;6.40;99.90
21445;DHT22;10883;51.946;20.140;2023-02-20T13:07:42;6.40;99.90
21445;DHT22;10883;51.946;20.140;2023-02-20T13:10:17;6.40;99.90
21445;DHT22;10883;51.946;20.140;2023-02-20T13:12:50;6.50;99.90
21445;DHT22;10883;51.946;20.140;2023-02-20T13:20:37;6.70;99.90
21445;DHT22;10883;51.946;20.140;2023-02-20T13:23:26;6.80;99.90
21445;DHT22;10883;51.946;20.140;2023-02-20T13:25:54;6.90;99.90
21445;DHT22;10883;51.946;20.140;2023-02-20T13:28:22;6.90;99.90
21445;DHT22;10883;51.946;20.140;2023-02-20T13:31:10;6.90;99.90
21445;DHT22;10883;51.946;20.140;2023-02-20T13:33:39;6.90;99.90
21445;DHT22;10883;51.946;20.140;2023-02-20T13:46:59;6.90;99.90
21445;DHT22;10883;51.946;20.140;2023-02-20T13:52:35;7.00;99.90
21445;DHT22;10883;51.946;20.140;2023-02-20T13:58:09;7.10;99.90
21445;DHT22;10883;51.946;20.140;2023-02-20T14:04:02;7.20;99.90
21445;DHT22;10883;51.946;20.140;2023-02-20T14:06:28;7.30;99.90
21445;DHT22;10883;51.946;20.140;2023-02-20T14:09:08;7.30;99.90
21445;DHT22;10883;51.946;20.140;2023-02-20T14:11:37;7.30;99.90
21445;DHT22;10883;51.946;20.140;2023-02-20T14:14:40;7.40;99.90
21445;DHT22;10883;51.946;20.140;2023-02-20T14:17:19;7.40;99.90
21445;DHT22;10883;51.946;20.140;2023-02-20T14:19:49;7.50;99.90
21445;DHT22;10883;51.946;20.140;2023-02-20T14:22:25;7.50;99.90
21445;DHT22;10883;51.946;20.140;2023-02-20T14:25:22;7.50;99.90
21445;DHT22;10883;51.946;20.140;2023-02-20T14:27:48;7.60;99.90
21445;DHT22;10883;51.946;20.140;2023-02-20T14:30:20;7.60;99.90
21445;DHT22;10883;51.946;20.140;2023-02-20T14:32:49;7.70;99.90
21445;DHT22;10883;51.946;20.140;2023-02-20T14:35:37;7.70;99.90
21445;DHT22;10883;51.946;20.140;2023-02-20T14:38:27;7.80;99.90
21445;DHT22;10883;51.946;20.140;2023-02-20T14:40:56;7.80;99.90
21445;DHT22;10883;51.946;20.140;2023-02-20T14:43:26;7.80;99.90
21445;DHT22;10883;51.946;20.140;2023-02-20T14:46:07;7.90;99.90
21445;DHT22;10883;51.946;20.140;2023-02-20T14:48:41;8.00;99.90
21445;DHT22;10883;51.946;20.140;2023-02-20T14:51:16;8.00;99.90
21445;DHT22;10883;51.946;20.140;2023-02-20T14:54:01;8.10;99.90
21445;DHT22;10883;51.946;20.140;2023-02-20T14:56:27;8.10;99.90
21445;DHT22;10883;51.946;20.140;2023-02-20T14:58:54;8.20;99.90
21445;DHT22;10883;51.946;20.140;2023-02-20T15:04:15;8.30;99.90
21445;DHT22;10883;51.946;20.140;2023-02-20T15:06:46;8.30;99.90
21445;DHT22;10883;51.946;20.140;2023-02-20T15:09:13;8.40;99.90
21445;DHT22;10883;51.946;20.140;2023-02-20T15:14:26;8.50;99.90
21445;DHT22;10883;51.946;20.140;2023-02-20T15:17:20;8.50;99.90
21445;DHT22;10883;51.946;20.140;2023-02-20T15:19:47;8.60;99.90
21445;DHT22;10883;51.946;20.140;2023-02-20T15:22:32;8.60;99.90
21445;DHT22;10883;51.946;20.140;2023-02-20T15:25:27;8.60;99.90
21445;DHT22;10883;51.946;20.140;2023-02-20T15:33:36;8.70;99.90
21445;DHT22;10883;51.946;20.140;2023-02-20T15:36:04;8.70;99.90
21445;DHT22;10883;51.946;20.140;2023-02-20T15:38:34;8.70;99.90
21445;DHT22;10883;51.946;20.140;2023-02-20T15:41:03;8.70;99.90
21445;DHT22;10883;51.946;20.140;2023-02-20T15:43:29;8.80;99.90
21445;DHT22;10883;51.946;20.140;2023-02-20T15:45:55;8.80;99.90
21445;DHT22;10883;51.946;20.140;2023-02-20T15:48:21;8.80;99.90
21445;DHT22;10883;51.946;20.140;2023-02-20T15:50:47;8.90;99.90
21445;DHT22;10883;51.946;20.140;2023-02-20T15:53:23;8.90;99.90
21445;DHT22;10883;51.946;20.140;2023-02-20T15:55:51;8.90;99.90
21445;DHT22;10883;51.946;20.140;2023-02-20T16:00:51;8.90;99.90
21445;DHT22;10883;51.946;20.140;2023-02-20T16:03:23;8.90;99.90
21445;DHT22;10883;51.946;20.140;2023-02-20T16:05:49;8.90;99.90
21445;DHT22;10883;51.946;20.140;2023-02-20T16:08:16;8.90;99.90
21445;DHT22;10883;51.946;20.140;2023-02-20T16:10:42;8.90;99.90
21445;DHT22;10883;51.946;20.140;2023-02-20T16:13:37;8.90;99.90
21445;DHT22;10883;51.946;20.140;2023-02-20T16:16:20;8.90;99.90
21445;DHT22;10883;51.946;20.140;2023-02-20T16:18:46;8.90;99.90
21445;DHT22;10883;51.946;20.140;2023-02-20T16:21:15;8.90;99.90
21445;DHT22;10883;51.946;20.140;2023-02-20T16:23:42;8.90;99.90
21445;DHT22;10883;51.946;20.140;2023-02-20T16:26:11;8.90;99.90
21445;DHT22;10883;51.946;20.140;2023-02-20T16:28:37;8.90;99.90
21445;DHT22;10883;51.946;20.140;2023-02-20T16:31:03;8.90;99.90
21445;DHT22;10883;51.946;20.140;2023-02-20T16:33:28;8.90;99.90
21445;DHT22;10883;51.946;20.140;2023-02-20T16:35:54;8.90;99.90
21445;DHT22;10883;51.946;20.140;2023-02-20T16:38:23;8.90;99.90
21445;DHT22;10883;51.946;20.140;2023-02-20T16:40:49;8.90;99.90
21445;DHT22;10883;51.946;20.140;2023-02-20T16:43:20;8.90;99.90
21445;DHT22;10883;51.946;20.140;2023-02-20T16:45:49;8.90;99.90
21445;DHT22;10883;51.946;20.140;2023-02-20T16:48:16;9.00;99.90
21445;DHT22;10883;51.946;20.140;2023-02-20T16:50:43;9.00;99.90
21445;DHT22;10883;51.946;20.140;2023-02-20T16:53:11;9.00;99.90
21445;DHT22;10883;51.946;20.140;2023-02-20T16:55:38;9.00;99.90
21445;DHT22;10883;51.946;20.140;2023-02-20T16:58:07;9.00;99.90
21445;DHT22;10883;51.946;20.140;2023-02-20T17:00:37;9.00;99.90
21445;DHT22;10883;51.946;20.140;2023-02-20T17:03:07;9.00;99.90
21445;DHT22;10883;51.946;20.140;2023-02-20T17:05:36;9.00;99.90
21445;DHT22;10883;51.946;20.140;2023-02-20T17:08:02;9.00;99.90
21445;DHT22;10883;51.946;20.140;2023-02-20T17:10:29;9.00;99.90
21445;DHT22;10883;51.946;20.140;2023-02-20T17:12:56;9.10;99.90
21445;DHT22;10883;51.946;20.140;2023-02-20T17:15:23;9.10;99.90
21445;DHT22;10883;51.946;20.140;2023-02-20T17:17:51;9.20;99.90
21445;DHT22;10883;51.946;20.140;2023-02-20T17:20:22;9.10;99.90
21445;DHT22;10883;51.946;20.140;2023-02-20T17:22:49;9.10;99.90
21445;DHT22;10883;51.946;20.140;2023-02-20T17:25:21;9.10;99.90
21445;DHT22;10883;51.946;20.140;2023-02-20T17:27:47;9.20;99.90
21445;DHT22;10883;51.946;20.140;2023-02-20T17:30:15;9.20;99.90
21445;DHT22;10883;51.946;20.140;2023-02-20T17:32:41;9.20;99.90
21445;DHT22;10883;51.946;20.140;2023-02-20T17:35:08;9.20;99.90
21445;DHT22;10883;51.946;20.140;2023-02-20T17:37:33;9.20;99.90
21445;DHT22;10883;51.946;20.140;2023-02-20T17:40:00;9.20;99.90
21445;DHT22;10883;51.946;20.140;2023-02-20T17:42:27;9.20;99.90
21445;DHT22;10883;51.946;20.140;2023-02-20T17:44:53;9.20;99.90
21445;DHT22;10883;51.946;20.140;2023-02-20T17:47:20;9.10;99.90
21445;DHT22;10883;51.946;20.140;2023-02-20T17:49:50;9.10;99.90
21445;DHT22;10883;51.946;20.140;2023-02-20T17:52:18;9.10;99.90
21445;DHT22;10883;51.946;20.140;2023-02-20T17:54:47;9.10;99.90
21445;DHT22;10883;51.946;20.140;2023-02-20T17:57:15;9.00;99.90
21445;DHT22;10883;51.946;20.140;2023-02-20T17:59:44;9.00;99.90